Time;durP1;ratioP1;P1;durP2;ratioP2;P2;SDS_P1;SDS_P2;PMS_P1;PMS_P2;Temp;Humidity;BMP_temperature;BMP_pressure;BME280_temperature;BME280_humidity;BME280_pressure;Samples;Min_cycle;Max_cycle;Signal;HPM_P1;HPM_P2
2022/02/15 00:01:04;;;;;;;13.60;10.87;;;6.40;81.50;;;;;;5032982;28;20180;-56
2022/02/15 00:03:30;;;;;;;16.10;12.23;;;6.50;81.30;;;;;;5032658;28;20195;-56
2022/02/15 00:05:57;;;;;;;17.97;12.73;;;6.50;79.20;;;;;;5032943;28;20179;-57
2022/02/15 00:08:24;;;;;;;14.67;11.43;;;6.40;78.50;;;;;;5032719;28;20695;-56
2022/02/15 00:10:49;;;;;;;15.60;12.07;;;6.50;79.10;;;;;;5032676;28;20174;-56
2022/02/15 00:13:15;;;;;;;15.97;11.33;;;6.50;79.20;;;;;;5032668;28;20581;-52
2022/02/15 00:15:41;;;;;;;16.17;12.47;;;6.60;78.80;;;;;;5032266;28;20533;-52
2022/02/15 00:18:06;;;;;;;15.63;12.33;;;6.60;78.10;;;;;;5032951;28;20191;-52
2022/02/15 00:20:32;;;;;;;17.70;12.83;;;6.70;77.60;;;;;;5032338;28;20175;-54
2022/02/15 00:22:58;;;;;;;18.07;12.80;;;6.70;77.90;;;;;;5032750;28;20195;-53
2022/02/15 00:25:23;;;;;;;16.30;12.07;;;6.70;77.00;;;;;;5031977;28;20691;-57
2022/02/15 00:27:49;;;;;;;15.70;12.20;;;6.80;77.40;;;;;;5032330;28;20275;-55
2022/02/15 00:30:15;;;;;;;17.57;12.40;;;6.80;78.10;;;;;;5032343;28;20243;-52
2022/02/15 00:32:43;;;;;;;15.30;11.43;;;6.80;77.80;;;;;;5032230;28;20224;-53
2022/02/15 00:35:09;;;;;;;15.27;11.73;;;6.80;78.10;;;;;;5032242;28;20648;-52
2022/02/15 00:37:35;;;;;;;14.17;10.90;;;6.80;79.00;;;;;;5032239;28;20175;-55
2022/02/15 00:40:00;;;;;;;14.63;12.17;;;6.80;79.00;;;;;;5030209;28;20184;-57
2022/02/15 00:42:26;;;;;;;16.10;11.40;;;6.70;79.00;;;;;;5029919;28;20573;-57
2022/02/15 00:44:51;;;;;;;16.33;12.20;;;6.80;79.50;;;;;;5031670;28;20182;-55
2022/02/15 00:47:17;;;;;;;17.03;12.30;;;6.70;79.40;;;;;;5031855;28;20253;-57
2022/02/15 00:49:43;;;;;;;17.87;13.17;;;6.80;79.30;;;;;;5031375;28;20258;-55
2022/02/15 00:52:09;;;;;;;17.47;13.73;;;6.80;79.90;;;;;;5032005;28;20219;-56
2022/02/15 00:54:34;;;;;;;18.03;12.50;;;6.80;79.20;;;;;;5030960;28;20255;-53
2022/02/15 00:57:00;;;;;;;15.43;11.37;;;6.80;79.60;;;;;;5031874;28;20167;-56
2022/02/15 00:59:26;;;;;;;15.40;10.40;;;6.70;80.20;;;;;;5031234;28;20184;-54
2022/02/15 01:01:51;;;;;;;13.30;10.60;;;6.70;80.70;;;;;;5031994;28;20191;-53
2022/02/15 01:04:17;;;;;;;13.60;10.57;;;6.70;81.10;;;;;;5031583;28;20652;-57
2022/02/15 01:06:43;;;;;;;15.70;10.97;;;6.70;81.30;;;;;;5031832;28;20537;-54
2022/02/15 01:09:09;;;;;;;17.10;10.23;;;6.70;81.80;;;;;;5031568;28;20207;-56
2022/02/15 01:11:35;;;;;;;15.00;11.40;;;6.60;83.00;;;;;;5032865;28;20196;-51
2022/02/15 01:14:00;;;;;;;13.57;10.43;;;6.40;83.20;;;;;;5031598;28;20949;-54
2022/02/15 01:16:26;;;;;;;14.60;11.40;;;6.30;83.80;;;;;;5031094;28;20200;-56
2022/02/15 01:18:52;;;;;;;13.50;11.07;;;5.90;85.50;;;;;;5031647;28;20217;-54
2022/02/15 01:21:17;;;;;;;14.33;11.27;;;5.70;86.70;;;;;;5031455;28;20577;-57
2022/02/15 01:23:43;;;;;;;17.30;11.17;;;5.80;87.20;;;;;;5031762;28;20186;-57
2022/02/15 01:26:09;;;;;;;15.30;11.53;;;5.90;87.20;;;;;;5031318;28;20557;-56
2022/02/15 01:28:34;;;;;;;14.33;11.63;;;6.00;86.80;;;;;;5031442;28;20278;-56
2022/02/15 01:31:03;;;;;;;12.87;10.77;;;6.10;86.90;;;;;;5031873;28;20608;-56
2022/02/15 01:33:29;;;;;;;16.20;10.40;;;6.10;87.20;;;;;;5031453;28;20203;-52
2022/02/15 01:35:55;;;;;;;13.67;10.97;;;6.10;87.50;;;;;;5031693;28;20175;-52
2022/02/15 01:38:20;;;;;;;16.33;11.53;;;6.20;87.40;;;;;;5031519;28;20218;-54
2022/02/15 01:40:46;;;;;;;14.47;11.00;;;6.20;87.00;;;;;;5031928;28;20263;-52
2022/02/15 01:43:12;;;;;;;14.87;10.63;;;6.20;87.10;;;;;;5031435;28;20196;-52
2022/02/15 01:45:37;;;;;;;16.47;11.53;;;6.20;87.30;;;;;;5031435;28;20187;-52
2022/02/15 01:48:03;;;;;;;16.23;11.33;;;6.20;87.50;;;;;;5031149;28;20205;-55
2022/02/15 01:50:29;;;;;;;14.87;11.73;;;6.20;86.90;;;;;;5030509;28;20187;-52
2022/02/15 01:52:54;;;;;;;15.87;11.93;;;6.20;86.80;;;;;;5031428;28;20188;-53
2022/02/15 01:55:20;;;;;;;15.90;11.87;;;6.10;86.90;;;;;;5030956;28;20207;-53
2022/02/15 01:57:46;;;;;;;16.63;12.60;;;5.90;87.60;;;;;;5031568;28;20540;-54
2022/02/15 02:00:15;;;;;;;16.00;11.83;;;5.90;87.90;;;;;;5030843;28;20172;-53
2022/02/15 02:02:41;;;;;;;16.17;12.43;;;5.90;87.10;;;;;;5031433;28;20211;-56
2022/02/15 02:07:51;;;;;;;14.33;12.03;;;6.00;86.40;;;;;;5027752;28;20253;-52
2022/02/15 02:10:17;;;;;;;15.10;12.00;;;6.00;86.70;;;;;;5034266;28;20567;-53
2022/02/15 02:12:42;;;;;;;16.43;13.13;;;6.00;86.90;;;;;;5034629;28;20223;-53
2022/02/15 02:15:24;;;;;;;14.90;12.07;;;6.00;87.40;;;;;;5034841;28;20182;-52
2022/02/15 02:17:51;;;;;;;14.60;11.80;;;6.00;87.80;;;;;;5034874;28;20210;-52
2022/02/15 02:20:17;;;;;;;17.93;12.73;;;6.00;87.50;;;;;;5034867;28;20186;-52
2022/02/15 02:22:43;;;;;;;16.07;11.50;;;5.90;87.40;;;;;;5034229;28;20200;-54
2022/02/15 02:25:12;;;;;;;16.03;12.47;;;6.00;87.60;;;;;;5034739;28;20657;-53
2022/02/15 02:27:39;;;;;;;16.47;12.60;;;6.00;87.70;;;;;;5034497;28;20256;-53
2022/02/15 02:30:05;;;;;;;18.20;13.10;;;5.90;87.40;;;;;;5034638;28;20168;-53
2022/02/15 02:32:32;;;;;;;16.43;13.67;;;5.80;87.20;;;;;;5033010;28;20580;-53
2022/02/15 02:35:01;;;;;;;15.73;12.30;;;5.70;87.10;;;;;;5034689;28;20251;-53
2022/02/15 02:37:27;;;;;;;16.20;12.77;;;5.70;87.30;;;;;;5034566;28;20306;-55
2022/02/15 02:39:54;;;;;;;16.80;12.67;;;5.70;87.30;;;;;;5033945;28;20739;-55
2022/02/15 02:42:26;;;;;;;17.17;12.80;;;5.80;87.80;;;;;;5034456;28;20242;-52
2022/02/15 02:44:56;;;;;;;17.00;12.40;;;5.90;87.60;;;;;;5034279;28;20222;-56
2022/02/15 02:47:22;;;;;;;14.97;12.20;;;5.90;88.50;;;;;;5034391;28;20645;-52
2022/02/15 02:49:48;;;;;;;18.53;13.20;;;5.90;88.80;;;;;;5033987;28;20174;-57
2022/02/15 02:52:14;;;;;;;19.30;13.90;;;5.90;87.10;;;;;;5034356;28;20219;-55
2022/02/15 02:54:42;;;;;;;17.60;13.83;;;5.80;86.40;;;;;;5033869;28;20503;-54
2022/02/15 02:57:08;;;;;;;18.20;13.90;;;5.80;86.10;;;;;;5034427;28;20643;-52
2022/02/15 02:59:34;;;;;;;15.57;12.67;;;5.70;86.80;;;;;;5033891;28;20218;-55
2022/02/15 03:01:59;;;;;;;19.00;13.90;;;5.60;87.00;;;;;;5034047;28;20223;-55
2022/02/15 03:04:25;;;;;;;17.77;14.37;;;5.60;87.60;;;;;;5034079;28;20199;-53
2022/02/15 03:06:50;;;;;;;19.83;14.57;;;5.60;88.40;;;;;;5033789;28;20183;-54
2022/02/15 03:09:16;;;;;;;18.53;13.73;;;5.60;88.70;;;;;;5033998;28;20204;-55
2022/02/15 03:11:42;;;;;;;16.43;13.50;;;5.60;89.20;;;;;;5033500;28;20561;-55
2022/02/15 03:14:08;;;;;;;16.20;13.07;;;5.60;89.70;;;;;;5033730;28;20188;-54
2022/02/15 03:16:34;;;;;;;16.57;12.40;;;5.50;90.40;;;;;;5033174;28;20175;-54
2022/02/15 03:19:00;;;;;;;15.17;12.03;;;5.50;90.70;;;;;;5033239;28;20184;-56
2022/02/15 03:21:26;;;;;;;15.50;12.63;;;5.50;90.80;;;;;;5034039;28;20270;-55
2022/02/15 03:23:52;;;;;;;16.17;12.57;;;5.60;91.00;;;;;;5033520;28;20667;-56
2022/02/15 03:26:18;;;;;;;14.93;12.50;;;5.60;91.10;;;;;;5032605;28;20187;-55
2022/02/15 03:28:44;;;;;;;16.30;13.10;;;5.70;91.20;;;;;;5030566;28;20669;-54
2022/02/15 03:31:09;;;;;;;16.07;13.40;;;5.80;90.70;;;;;;5033101;28;20178;-53
2022/02/15 03:33:35;;;;;;;16.57;13.17;;;5.80;90.50;;;;;;5032753;28;20200;-55
2022/02/15 03:36:01;;;;;;;16.93;13.47;;;5.80;90.40;;;;;;5033217;28;20191;-56
2022/02/15 03:38:27;;;;;;;15.87;12.90;;;5.90;90.30;;;;;;5032708;28;20183;-55
2022/02/15 03:43:37;;;;;;;14.20;11.73;;;5.90;90.80;;;;;;5033430;28;20561;-54
2022/02/15 03:46:03;;;;;;;16.50;12.80;;;5.90;90.90;;;;;;5017831;28;20218;-55
2022/02/15 03:48:29;;;;;;;16.73;12.57;;;5.90;91.20;;;;;;5032922;28;20238;-56
2022/02/15 03:50:54;;;;;;;15.43;12.37;;;5.90;91.20;;;;;;5033049;28;20267;-53
2022/02/15 03:53:20;;;;;;;15.87;11.70;;;5.90;91.30;;;;;;5033183;28;20231;-56
2022/02/15 03:55:46;;;;;;;14.37;11.33;;;5.90;91.50;;;;;;5032886;28;20183;-54
2022/02/15 03:58:12;;;;;;;17.43;12.57;;;5.80;91.70;;;;;;5033009;28;20263;-55
2022/02/15 04:00:39;;;;;;;15.40;11.77;;;5.80;92.10;;;;;;5032643;28;20245;-55
2022/02/15 04:03:05;;;;;;;14.57;11.13;;;5.90;92.20;;;;;;5032719;28;20203;-57
2022/02/15 04:05:31;;;;;;;14.03;10.90;;;5.80;92.30;;;;;;5032702;28;20191;-55
2022/02/15 04:07:56;;;;;;;12.20;9.53;;;5.80;92.50;;;;;;5032552;28;20613;-55
2022/02/15 04:10:22;;;;;;;13.90;10.53;;;5.70;92.90;;;;;;5032897;28;20792;-55
2022/02/15 04:12:47;;;;;;;12.47;9.30;;;5.70;93.40;;;;;;5032604;28;20583;-53
2022/02/15 04:15:14;;;;;;;12.83;10.13;;;5.60;93.90;;;;;;5032581;28;20186;-55
2022/02/15 04:17:40;;;;;;;15.37;10.07;;;5.60;94.10;;;;;;5032448;28;20172;-56
2022/02/15 04:20:06;;;;;;;14.00;9.63;;;5.70;94.40;;;;;;5032634;28;20176;-54
2022/02/15 04:22:32;;;;;;;14.03;10.13;;;5.70;94.60;;;;;;5032304;28;20192;-54
2022/02/15 04:24:59;;;;;;;12.70;10.17;;;5.60;95.30;;;;;;5032748;28;20188;-55
2022/02/15 04:27:25;;;;;;;13.20;10.30;;;5.40;96.40;;;;;;5032839;28;20553;-56
2022/02/15 04:29:50;;;;;;;14.40;11.27;;;5.20;97.00;;;;;;5031447;28;20172;-55
2022/02/15 04:32:16;;;;;;;14.93;11.33;;;5.20;97.70;;;;;;5032852;28;20318;-56
2022/02/15 04:34:41;;;;;;;16.40;11.17;;;5.20;98.60;;;;;;5032260;28;20522;-55
2022/02/15 04:37:07;;;;;;;16.57;12.73;;;5.00;99.80;;;;;;5032250;28;20229;-51
2022/02/15 04:39:33;;;;;;;15.57;12.43;;;5.00;99.90;;;;;;5031856;28;20183;-52
2022/02/15 04:41:59;;;;;;;15.13;11.20;;;5.10;99.90;;;;;;5032261;28;20278;-55
2022/02/15 04:44:24;;;;;;;13.73;11.00;;;5.20;99.90;;;;;;5031818;28;20251;-56
2022/02/15 04:46:50;;;;;;;15.17;10.93;;;5.20;99.90;;;;;;5032228;28;20183;-55
2022/02/15 04:49:16;;;;;;;14.03;11.40;;;5.20;99.90;;;;;;5032120;28;20199;-53
2022/02/15 04:51:41;;;;;;;13.83;11.67;;;5.40;99.90;;;;;;5031677;28;20199;-57
2022/02/15 04:54:07;;;;;;;12.87;11.30;;;5.50;99.90;;;;;;5032273;28;20252;-54
2022/02/15 04:56:32;;;;;;;17.10;12.37;;;5.60;99.80;;;;;;5029437;28;20258;-55
2022/02/15 04:58:58;;;;;;;14.37;11.97;;;5.70;99.70;;;;;;5031101;28;20311;-53
2022/02/15 05:01:23;;;;;;;14.03;11.83;;;5.70;99.40;;;;;;5031099;28;20184;-53
2022/02/15 05:03:49;;;;;;;15.60;12.67;;;5.80;98.80;;;;;;5031743;28;20215;-53
2022/02/15 05:06:14;;;;;;;15.80;12.63;;;5.70;98.50;;;;;;5031312;28;20234;-54
2022/02/15 05:08:40;;;;;;;17.07;13.13;;;5.80;98.60;;;;;;5031468;28;20300;-53
2022/02/15 05:11:06;;;;;;;16.73;12.50;;;5.80;98.00;;;;;;5031912;28;20168;-52
2022/02/15 05:13:32;;;;;;;14.70;11.50;;;5.80;97.90;;;;;;5031115;28;20214;-52
2022/02/15 05:15:57;;;;;;;15.37;11.63;;;5.80;97.10;;;;;;5031739;28;20520;-52
2022/02/15 05:18:23;;;;;;;14.97;12.43;;;5.90;97.20;;;;;;5031381;28;20210;-55
2022/02/15 05:20:48;;;;;;;14.93;11.87;;;5.90;97.30;;;;;;5031856;28;20540;-52
2022/02/15 05:23:14;;;;;;;14.57;12.13;;;5.90;97.30;;;;;;5031405;28;20270;-52
2022/02/15 05:25:40;;;;;;;13.40;11.50;;;5.90;97.30;;;;;;5030387;28;20176;-52
2022/02/15 05:28:06;;;;;;;13.63;11.00;;;5.90;97.30;;;;;;5031368;28;20257;-53
2022/02/15 05:30:31;;;;;;;14.03;11.17;;;5.90;98.00;;;;;;5031264;28;20180;-51
2022/02/15 05:32:57;;;;;;;13.50;10.73;;;5.80;98.20;;;;;;5031455;28;20193;-51
2022/02/15 05:35:23;;;;;;;14.53;11.13;;;5.90;98.40;;;;;;5031216;28;20176;-52
2022/02/15 05:37:49;;;;;;;15.07;12.27;;;6.00;98.60;;;;;;5031712;28;20176;-53
2022/02/15 05:40:15;;;;;;;14.40;11.60;;;5.90;98.40;;;;;;5031457;28;20267;-53
2022/02/15 05:42:42;;;;;;;15.90;12.17;;;5.80;98.50;;;;;;5035621;28;20196;-51
2022/02/15 05:45:08;;;;;;;15.40;10.90;;;5.80;98.80;;;;;;5035364;28;20171;-55
2022/02/15 05:47:34;;;;;;;14.23;11.13;;;5.80;99.20;;;;;;5035615;28;20199;-52
2022/02/15 05:52:43;;;;;;;16.77;12.37;;;5.90;99.30;;;;;;5035400;28;20237;-52
2022/02/15 05:55:10;;;;;;;14.00;11.10;;;6.00;99.20;;;;;;5035288;28;20175;-52
2022/02/15 05:57:36;;;;;;;14.23;11.73;;;6.10;99.10;;;;;;5035280;28;20180;-54
2022/02/15 06:00:04;;;;;;;17.13;11.67;;;6.10;99.10;;;;;;5035215;28;20199;-55
2022/02/15 06:02:30;;;;;;;14.57;11.70;;;6.10;99.10;;;;;;5035086;28;20665;-52
2022/02/15 06:04:55;;;;;;;14.93;11.77;;;6.20;99.20;;;;;;5034921;28;20172;-52
2022/02/15 06:07:21;;;;;;;14.03;10.97;;;6.10;99.30;;;;;;5034764;28;20175;-53
2022/02/15 06:09:47;;;;;;;13.80;10.80;;;6.20;99.40;;;;;;5034908;28;20261;-53
2022/02/15 06:12:12;;;;;;;14.43;10.90;;;6.20;99.50;;;;;;5034783;28;20212;-55
2022/02/15 06:14:38;;;;;;;14.73;10.73;;;6.20;99.40;;;;;;5034727;28;20234;-54
2022/02/15 06:17:04;;;;;;;11.93;9.50;;;6.20;99.40;;;;;;5016776;28;20767;-54
2022/02/15 06:19:29;;;;;;;12.27;10.23;;;6.20;99.40;;;;;;5032973;28;20657;-53
2022/02/15 06:21:55;;;;;;;13.23;10.40;;;6.20;99.30;;;;;;5028074;28;20705;-53
2022/02/15 06:24:23;;;;;;;13.57;10.70;;;6.20;99.40;;;;;;5033479;28;20175;-55
2022/02/15 06:26:49;;;;;;;12.23;10.10;;;6.20;99.40;;;;;;5028661;28;20649;-51
2022/02/15 06:29:15;;;;;;;13.77;10.97;;;6.20;99.40;;;;;;5025260;28;20665;-51
2022/02/15 06:31:41;;;;;;;13.77;10.80;;;6.20;99.60;;;;;;5026855;28;20195;-55
2022/02/15 06:34:06;;;;;;;12.77;10.40;;;6.10;99.90;;;;;;5023330;28;20215;-56
2022/02/15 06:36:32;;;;;;;12.97;10.10;;;6.00;99.90;;;;;;5024174;28;20267;-54
2022/02/15 06:38:58;;;;;;;13.97;9.87;;;6.00;99.90;;;;;;5028264;28;20294;-54
2022/02/15 06:41:24;;;;;;;13.90;10.60;;;6.00;99.90;;;;;;5013651;28;20617;-57
2022/02/15 06:43:51;;;;;;;13.63;10.10;;;6.00;99.90;;;;;;5023771;28;20208;-52
2022/02/15 06:46:16;;;;;;;11.80;10.50;;;6.10;99.90;;;;;;5024150;28;20183;-55
2022/02/15 06:48:42;;;;;;;13.13;10.57;;;6.10;99.90;;;;;;5023250;28;20208;-52
2022/02/15 06:51:08;;;;;;;18.13;14.07;;;6.20;99.90;;;;;;5025125;28;20650;-56
2022/02/15 06:53:33;;;;;;;12.67;10.77;;;6.30;99.90;;;;;;5022244;28;20206;-54
2022/02/15 06:55:59;;;;;;;15.47;11.30;;;6.40;99.90;;;;;;5028195;28;20172;-56
2022/02/15 06:58:25;;;;;;;14.17;10.90;;;6.40;99.90;;;;;;5016063;28;20180;-57
2022/02/15 07:00:50;;;;;;;13.50;11.13;;;6.40;99.90;;;;;;5020670;28;20179;-54
2022/02/15 07:03:16;;;;;;;12.27;10.37;;;6.40;99.90;;;;;;5028824;28;20195;-55
2022/02/15 07:05:41;;;;;;;14.90;12.33;;;6.40;99.90;;;;;;5032816;28;20187;-55
2022/02/15 07:08:07;;;;;;;14.00;11.63;;;6.40;99.90;;;;;;5033072;28;20568;-52
2022/02/15 07:10:33;;;;;;;13.63;11.07;;;6.40;99.90;;;;;;5033252;28;20167;-56
2022/02/15 07:12:59;;;;;;;13.67;11.17;;;6.50;99.90;;;;;;5034614;28;20207;-59
2022/02/15 07:15:25;;;;;;;14.30;11.00;;;6.40;99.90;;;;;;5028163;28;20179;-54
2022/02/15 07:17:50;;;;;;;14.03;11.67;;;6.40;99.90;;;;;;5029937;28;20187;-56
2022/02/15 07:20:16;;;;;;;16.07;11.20;;;6.40;99.90;;;;;;5033533;28;20171;-52
2022/02/15 07:22:41;;;;;;;14.23;10.63;;;6.40;99.90;;;;;;5033221;28;20557;-54
2022/02/15 07:25:08;;;;;;;13.47;11.13;;;6.50;99.90;;;;;;5034045;28;20259;-55
2022/02/15 07:27:34;;;;;;;12.77;10.93;;;6.50;99.80;;;;;;5033445;28;20640;-53
2022/02/15 07:29:59;;;;;;;17.50;12.10;;;6.50;99.60;;;;;;5032573;28;20191;-55
2022/02/15 07:32:26;;;;;;;13.50;11.70;;;6.50;99.80;;;;;;5033339;28;20314;-52
2022/02/15 07:34:53;;;;;;;13.67;10.83;;;6.50;99.90;;;;;;5033344;28;20222;-57
2022/02/15 07:37:20;;;;;;;14.50;12.17;;;6.50;99.90;;;;;;5032973;28;20183;-53
2022/02/15 07:39:45;;;;;;;14.47;11.60;;;6.50;99.90;;;;;;5031747;28;20210;-53
2022/02/15 07:42:11;;;;;;;15.27;11.97;;;6.50;99.90;;;;;;5033252;28;20195;-53
2022/02/15 07:44:37;;;;;;;16.17;11.50;;;6.50;99.90;;;;;;5036343;28;20233;-53
2022/02/15 07:47:03;;;;;;;13.80;11.83;;;6.50;99.90;;;;;;5053185;28;20171;-53
2022/02/15 07:49:31;;;;;;;14.10;11.73;;;6.50;99.90;;;;;;5052732;28;20203;-54
2022/02/15 07:51:57;;;;;;;13.57;11.77;;;6.50;99.90;;;;;;5053115;28;20265;-53
2022/02/15 07:54:23;;;;;;;15.87;12.03;;;7.10;99.90;;;;;;5052730;28;20664;-55
2022/02/15 07:56:48;;;;;;;13.40;12.00;;;6.40;99.90;;;;;;5053129;28;20171;-53
2022/02/15 07:59:14;;;;;;;17.23;12.03;;;6.40;99.90;;;;;;5052515;28;20183;-53
2022/02/15 08:01:40;;;;;;;16.37;13.07;;;6.40;99.90;;;;;;5052788;28;20658;-53
2022/02/15 08:04:05;;;;;;;17.23;13.60;;;6.30;99.90;;;;;;5052822;28;20553;-55
2022/02/15 08:06:31;;;;;;;15.93;13.50;;;6.40;99.90;;;;;;5052510;28;20552;-53
2022/02/15 08:08:57;;;;;;;19.60;14.67;;;6.50;99.90;;;;;;5018551;28;20211;-51
2022/02/15 08:11:24;;;;;;;18.20;13.70;;;6.50;99.90;;;;;;5044548;28;20207;-51
2022/02/15 08:13:51;;;;;;;17.47;14.47;;;6.50;99.90;;;;;;5032842;28;20792;-51
2022/02/15 08:16:17;;;;;;;17.10;14.00;;;6.50;99.90;;;;;;5032451;28;20581;-52
2022/02/15 08:18:42;;;;;;;16.40;13.87;;;6.50;99.90;;;;;;5032636;28;20215;-55
2022/02/15 08:21:10;;;;;;;16.97;14.70;;;6.50;99.90;;;;;;5032364;28;20565;-51
2022/02/15 08:23:36;;;;;;;20.53;14.83;;;6.50;99.90;;;;;;5032850;28;20202;-51
2022/02/15 08:26:02;;;;;;;17.43;13.60;;;6.40;99.90;;;;;;5031130;28;20214;-51
2022/02/15 08:28:28;;;;;;;18.90;15.07;;;6.30;99.90;;;;;;5020139;28;20257;-50
2022/02/15 08:30:54;;;;;;;16.50;13.63;;;6.30;99.90;;;;;;5031876;28;20671;-51
2022/02/15 08:33:19;;;;;;;17.83;13.30;;;6.40;99.90;;;;;;5031735;28;20227;-53
2022/02/15 08:35:45;;;;;;;17.80;13.40;;;6.40;99.90;;;;;;5031732;28;20191;-53
2022/02/15 08:38:10;;;;;;;15.53;12.83;;;6.50;99.90;;;;;;5031831;28;20645;-50
2022/02/15 08:40:36;;;;;;;17.27;13.27;;;6.50;99.90;;;;;;5032448;28;20175;-56
2022/02/15 08:43:01;;;;;;;15.93;13.27;;;6.40;99.90;;;;;;5031969;28;20195;-51
2022/02/15 08:45:28;;;;;;;16.53;14.53;;;6.40;99.90;;;;;;5031802;28;20187;-52
2022/02/15 08:47:54;;;;;;;18.20;15.00;;;6.40;99.90;;;;;;5031882;28;20203;-49
2022/02/15 08:50:20;;;;;;;16.87;14.27;;;6.40;99.90;;;;;;5031870;28;20168;-51
2022/02/15 08:52:46;;;;;;;15.20;13.03;;;6.40;99.90;;;;;;5032183;28;20222;-51
2022/02/15 08:55:12;;;;;;;18.30;13.53;;;6.50;99.90;;;;;;5031713;28;20205;-51
2022/02/15 08:57:37;;;;;;;18.23;13.50;;;6.50;99.90;;;;;;5032231;28;20171;-54
2022/02/15 09:00:05;;;;;;;16.07;13.50;;;6.60;99.90;;;;;;5031669;28;20637;-56
2022/02/15 09:02:31;;;;;;;16.27;13.13;;;6.60;99.90;;;;;;5031223;28;20202;-51
2022/02/15 09:04:56;;;;;;;16.70;13.77;;;6.70;99.90;;;;;;5031476;28;20176;-55
2022/02/15 09:07:22;;;;;;;18.37;14.70;;;6.70;99.90;;;;;;5032024;28;20176;-51
2022/02/15 09:09:49;;;;;;;15.93;13.77;;;6.70;99.90;;;;;;5031795;28;20605;-51
2022/02/15 09:12:14;;;;;;;15.87;13.33;;;6.80;99.90;;;;;;5031631;28;20195;-55
2022/02/15 09:14:40;;;;;;;15.77;13.67;;;6.80;99.90;;;;;;5031359;28;20656;-56
2022/02/15 09:17:05;;;;;;;17.07;14.30;;;6.90;99.90;;;;;;5031120;28;20168;-53
2022/02/15 09:19:32;;;;;;;17.20;14.57;;;6.90;99.90;;;;;;5031759;28;20198;-51
2022/02/15 09:21:59;;;;;;;16.00;14.17;;;7.00;99.90;;;;;;5031660;28;20195;-54
2022/02/15 09:24:26;;;;;;;17.00;14.60;;;7.00;99.90;;;;;;5031738;28;20547;-53
2022/02/15 09:26:52;;;;;;;17.47;15.10;;;7.00;99.90;;;;;;5031396;28;20637;-53
2022/02/15 09:29:18;;;;;;;20.17;15.33;;;7.10;99.90;;;;;;5028413;28;20211;-54
2022/02/15 09:31:43;;;;;;;19.30;16.60;;;7.10;99.90;;;;;;5021438;28;20187;-54
2022/02/15 09:34:10;;;;;;;17.80;15.50;;;7.10;99.90;;;;;;5021669;28;20626;-57
2022/02/15 09:36:36;;;;;;;18.13;15.80;;;7.10;99.90;;;;;;5025585;28;20179;-58
2022/02/15 09:39:06;;;;;;;18.77;16.10;;;7.10;99.90;;;;;;5021794;28;20186;-54
2022/02/15 09:41:35;;;;;;;17.77;15.37;;;7.10;99.90;;;;;;5024968;28;20218;-52
2022/02/15 09:44:05;;;;;;;19.40;15.93;;;7.10;99.90;;;;;;5030429;28;20186;-56
2022/02/15 09:46:32;;;;;;;19.47;16.20;;;7.10;99.90;;;;;;5031067;28;20206;-56
2022/02/15 09:48:58;;;;;;;18.40;15.60;;;7.20;99.90;;;;;;5030692;28;20568;-55
2022/02/15 09:51:25;;;;;;;20.13;16.47;;;7.10;99.90;;;;;;5020208;28;20180;-55
2022/02/15 09:53:51;;;;;;;19.93;17.27;;;7.20;99.90;;;;;;5026813;28;20267;-55
2022/02/15 09:56:16;;;;;;;20.03;17.07;;;7.20;99.90;;;;;;5028213;28;20179;-52
2022/02/15 09:58:42;;;;;;;18.67;16.57;;;7.20;99.90;;;;;;5025813;28;20183;-52
2022/02/15 10:01:16;;;;;;;19.37;17.03;;;7.30;99.90;;;;;;5023322;28;20653;-52
2022/02/15 10:03:47;;;;;;;19.67;17.53;;;7.40;99.90;;;;;;5020524;28;20168;-53
2022/02/15 10:06:13;;;;;;;17.43;15.50;;;7.40;99.90;;;;;;5019704;28;20544;-55
2022/02/15 10:08:39;;;;;;;17.50;15.20;;;7.50;99.90;;;;;;5023070;28;20274;-53
2022/02/15 10:11:13;;;;;;;19.03;15.90;;;7.50;99.90;;;;;;5022080;28;20251;-52
2022/02/15 10:13:46;;;;;;;18.03;16.13;;;7.60;99.90;;;;;;5021688;28;20286;-52
2022/02/15 10:16:12;;;;;;;17.03;15.20;;;7.60;99.90;;;;;;5024755;28;20179;-50
2022/02/15 10:18:38;;;;;;;17.80;15.77;;;7.60;99.90;;;;;;5031102;28;20225;-54
2022/02/15 10:21:05;;;;;;;18.00;16.13;;;7.60;99.90;;;;;;5031578;28;20172;-53
2022/02/15 10:23:33;;;;;;;19.67;15.97;;;7.60;99.90;;;;;;5022078;28;20212;-52
2022/02/15 10:26:00;;;;;;;19.33;17.33;;;7.70;99.90;;;;;;5030087;28;20176;-49
2022/02/15 10:28:29;;;;;;;18.97;16.97;;;7.60;99.90;;;;;;5034159;28;20204;-53
2022/02/15 10:30:55;;;;;;;18.97;16.97;;;7.50;99.90;;;;;;5034680;28;20175;-52
2022/02/15 10:33:29;;;;;;;20.47;18.27;;;7.60;99.90;;;;;;5034490;28;20287;-53
2022/02/15 10:36:04;;;;;;;20.03;16.90;;;7.60;99.90;;;;;;5032945;28;20250;-55
2022/02/15 10:38:40;;;;;;;20.00;17.23;;;7.70;99.90;;;;;;5031847;28;20657;-53
2022/02/15 10:41:12;;;;;;;19.60;17.50;;;7.70;99.90;;;;;;5034343;28;20178;-51
2022/02/15 10:43:45;;;;;;;20.57;17.90;;;7.80;99.90;;;;;;5034503;28;20676;-49
2022/02/15 10:46:25;;;;;;;21.50;18.37;;;7.80;99.90;;;;;;5034059;28;20680;-50
2022/02/15 10:48:52;;;;;;;19.23;17.13;;;7.80;99.90;;;;;;5034344;28;20602;-54
2022/02/15 10:51:19;;;;;;;18.93;16.93;;;7.80;99.90;;;;;;5034132;28;20175;-50
2022/02/15 10:53:44;;;;;;;17.93;15.93;;;7.80;99.90;;;;;;5034446;28;20537;-55
2022/02/15 10:56:10;;;;;;;20.37;16.97;;;7.80;99.90;;;;;;5033882;28;20180;-52
2022/02/15 10:58:36;;;;;;;19.07;16.70;;;7.90;99.90;;;;;;5031129;28;20230;-51
2022/02/15 11:01:04;;;;;;;18.63;16.63;;;7.90;99.90;;;;;;5034129;28;20207;-51
2022/02/15 11:03:32;;;;;;;18.37;16.30;;;7.90;99.90;;;;;;5032394;28;20230;-50
2022/02/15 11:05:59;;;;;;;19.20;17.20;;;7.90;99.90;;;;;;5034037;28;20176;-51
2022/02/15 11:08:26;;;;;;;18.37;16.47;;;8.00;99.90;;;;;;5033397;28;20204;-52
2022/02/15 11:11:13;;;;;;;18.87;16.73;;;8.10;99.90;;;;;;5034070;28;20172;-55
2022/02/15 11:13:40;;;;;;;18.53;16.60;;;8.20;99.90;;;;;;5031606;28;20298;-52
2022/02/15 11:16:12;;;;;;;19.00;17.00;;;8.20;99.90;;;;;;5032518;28;20182;-51
2022/02/15 11:18:38;;;;;;;18.00;16.13;;;8.30;99.90;;;;;;5033330;28;20188;-54
2022/02/15 11:21:06;;;;;;;17.77;15.63;;;8.30;99.90;;;;;;5033203;28;20164;-50
2022/02/15 11:23:37;;;;;;;18.43;16.47;;;8.40;99.90;;;;;;5033417;28;20200;-50
2022/02/15 11:26:13;;;;;;;17.53;15.73;;;8.40;99.90;;;;;;5033198;28;20172;-53
2022/02/15 11:28:50;;;;;;;17.37;15.50;;;8.50;99.90;;;;;;5033465;28;20282;-53
2022/02/15 11:31:32;;;;;;;17.67;15.87;;;8.50;99.90;;;;;;5032846;28;20172;-50
2022/02/15 11:34:01;;;;;;;16.87;15.13;;;8.60;99.90;;;;;;5033327;28;20176;-53
2022/02/15 11:36:26;;;;;;;18.77;15.20;;;8.60;99.90;;;;;;5033173;28;20179;-51
2022/02/15 11:38:58;;;;;;;17.97;15.97;;;8.60;99.90;;;;;;5032037;28;20176;-49
2022/02/15 11:41:25;;;;;;;17.80;15.90;;;8.70;99.90;;;;;;5033276;28;20238;-51
2022/02/15 11:43:59;;;;;;;18.80;16.97;;;8.70;99.90;;;;;;5033123;28;20164;-51
2022/02/15 11:46:33;;;;;;;17.33;15.53;;;8.60;99.90;;;;;;5033248;28;20172;-50
2022/02/15 11:49:14;;;;;;;23.93;19.13;;;8.50;99.90;;;;;;5032634;28;20201;-55
2022/02/15 11:51:42;;;;;;;19.10;17.03;;;8.40;99.90;;;;;;5033131;28;20206;-55
2022/02/15 11:54:14;;;;;;;20.07;16.53;;;8.40;99.90;;;;;;5032789;28;20164;-54
2022/02/15 11:56:45;;;;;;;18.13;16.23;;;8.40;99.90;;;;;;5033094;28;20168;-51
2022/02/15 11:59:18;;;;;;;18.13;16.17;;;8.50;99.90;;;;;;5033071;28;20167;-54
2022/02/15 12:02:00;;;;;;;23.17;20.67;;;8.60;99.90;;;;;;5026821;28;20604;-51
2022/02/15 12:04:27;;;;;;;23.87;21.37;;;8.70;99.90;;;;;;5013197;28;20185;-51
2022/02/15 12:06:52;;;;;;;19.27;16.27;;;8.80;99.90;;;;;;5012914;28;20172;-53
2022/02/15 12:09:26;;;;;;;17.97;16.10;;;8.60;99.90;;;;;;5012924;28;20215;-50
2022/02/15 12:11:51;;;;;;;18.00;15.17;;;8.60;99.90;;;;;;5012713;28;20192;-52
2022/02/15 12:14:19;;;;;;;17.93;15.47;;;8.60;99.90;;;;;;5012695;28;20184;-49
2022/02/15 12:16:54;;;;;;;16.97;15.17;;;8.50;99.90;;;;;;5012783;28;20294;-54
2022/02/15 12:19:32;;;;;;;18.60;16.57;;;8.50;99.90;;;;;;5012799;28;20549;-51
2022/02/15 12:21:59;;;;;;;17.77;15.83;;;8.40;99.90;;;;;;5016226;28;20206;-50
2022/02/15 12:24:27;;;;;;;17.07;15.33;;;8.30;99.90;;;;;;5032092;28;20184;-51
2022/02/15 12:26:55;;;;;;;17.23;15.43;;;8.40;99.90;;;;;;5032242;28;20531;-51
2022/02/15 12:29:21;;;;;;;19.47;17.47;;;8.50;99.90;;;;;;5031961;28;20214;-53
2022/02/15 12:31:53;;;;;;;19.27;17.13;;;8.40;99.90;;;;;;5032358;28;20200;-51
2022/02/15 12:34:18;;;;;;;17.77;15.87;;;8.40;99.90;;;;;;5032089;28;20175;-50
2022/02/15 12:36:44;;;;;;;17.50;15.67;;;8.50;99.90;;;;;;5032420;28;20184;-51
2022/02/15 12:39:10;;;;;;;17.77;15.87;;;8.60;99.90;;;;;;5029204;28;20184;-52
2022/02/15 12:41:44;;;;;;;17.70;15.83;;;8.60;99.90;;;;;;5031414;28;20187;-53
2022/02/15 12:44:10;;;;;;;18.03;16.10;;;8.70;99.90;;;;;;5032052;28;20628;-53